createdAt,value
2023-04-14T00:00:52.830Z,97291.31
2023-04-14T00:03:21.557Z,97287.75
2023-04-14T00:05:51.450Z,97288.63
2023-04-14T00:08:19.831Z,97277.88
2023-04-14T00:10:48.332Z,97273.50
2023-04-14T00:13:16.774Z,97276.19
2023-04-14T00:15:45.156Z,97277.00
2023-04-14T00:18:13.557Z,97275.38
2023-04-14T00:20:42.128Z,97282.38
2023-04-14T00:23:11.875Z,97274.34
2023-04-14T00:25:40.326Z,97272.50
2023-04-14T00:28:08.687Z,97266.50
2023-04-14T00:30:37.017Z,97268.13
2023-04-14T00:33:05.540Z,97268.13
2023-04-14T00:35:34.060Z,97258.44
2023-04-14T00:38:02.436Z,97261.94
2023-04-14T00:40:32.395Z,97260.06
2023-04-14T00:43:00.756Z,97253.06
2023-04-14T00:45:29.109Z,97260.06
2023-04-14T00:47:57.491Z,97260.91
2023-04-14T00:50:26.165Z,97254.69
2023-04-14T00:52:54.677Z,97255.75
2023-04-14T00:55:23.044Z,97254.91
2023-04-14T00:57:52.897Z,97247.69
2023-04-14T01:00:21.764Z,97240.44
2023-04-14T01:02:50.293Z,97248.50
2023-04-14T01:05:19.188Z,97245.00
2023-04-14T01:07:48.399Z,97242.31
2023-04-14T01:10:16.930Z,97242.31
2023-04-14T01:13:08.210Z,97241.50
2023-04-14T01:15:41.269Z,97242.31
2023-04-14T01:18:28.086Z,97247.69
2023-04-14T01:21:00.605Z,97243.13
2023-04-14T01:23:32.001Z,97225.38
2023-04-14T01:26:19.752Z,97227.22
2023-04-14T01:29:08.153Z,97227.22
2023-04-14T01:31:41.995Z,97235.28
2023-04-14T01:34:22.390Z,97236.13
2023-04-14T01:37:01.290Z,97237.97
2023-04-14T01:39:37.687Z,97241.50
2023-04-14T01:42:08.710Z,97244.19
2023-04-14T01:44:37.074Z,97246.84
2023-04-14T01:47:09.362Z,97249.53
2023-04-14T01:49:40.537Z,97246.03
2023-04-14T01:52:11.060Z,97246.03
2023-04-14T01:54:41.501Z,97246.03
2023-04-14T01:57:10.122Z,97242.50
2023-04-14T01:59:38.526Z,97232.59
2023-04-14T02:02:09.461Z,97237.97
2023-04-14T02:04:38.007Z,97229.06
2023-04-14T02:07:06.365Z,97223.91
2023-04-14T02:09:34.768Z,97222.06
2023-04-14T02:12:03.465Z,97225.56
2023-04-14T02:14:32.299Z,97225.56
2023-04-14T02:17:00.665Z,97228.25
2023-04-14T02:19:30.362Z,97216.69
2023-04-14T02:21:58.761Z,97212.13
2023-04-14T02:24:27.174Z,97212.13
2023-04-14T02:26:59.833Z,97210.47
2023-04-14T02:29:28.204Z,97212.13
2023-04-14T02:31:59.879Z,97209.44
2023-04-14T02:34:32.962Z,97212.13
2023-04-14T02:37:09.263Z,97207.78
2023-04-14T02:39:41.266Z,97206.75
2023-04-14T02:42:14.000Z,97205.94
2023-04-14T02:44:46.878Z,97204.06
2023-04-14T02:47:17.163Z,97195.19
2023-04-14T02:49:48.709Z,97195.19
2023-04-14T02:52:18.299Z,97186.31
2023-04-14T02:54:46.641Z,97191.69
2023-04-14T02:57:15.138Z,97188.16
2023-04-14T02:59:43.612Z,97182.78
2023-04-14T03:02:12.067Z,97182.78
2023-04-14T03:04:41.155Z,97173.88
2023-04-14T03:07:11.166Z,97180.09
2023-04-14T03:09:40.323Z,97179.25
2023-04-14T03:12:09.256Z,97179.25
2023-04-14T03:14:37.682Z,97182.78
2023-04-14T03:17:06.119Z,97184.63
2023-04-14T03:19:34.548Z,97187.31
2023-04-14T03:22:03.869Z,97187.31
2023-04-14T03:24:34.816Z,97197.06
2023-04-14T03:27:10.630Z,97181.94
2023-04-14T03:29:41.525Z,97186.50
2023-04-14T03:32:10.210Z,97186.50
2023-04-14T03:34:42.094Z,97189.19
2023-04-14T03:37:10.948Z,97195.38
2023-04-14T03:39:41.410Z,97188.34
2023-04-14T03:42:11.505Z,97179.47
2023-04-14T03:44:43.171Z,97174.94
2023-04-14T03:47:12.446Z,97174.09
2023-04-14T03:49:43.342Z,97169.56
2023-04-14T03:52:13.086Z,97174.94
2023-04-14T03:54:44.153Z,97164.19
2023-04-14T03:57:14.395Z,97166.88
2023-04-14T03:59:42.745Z,97160.66
2023-04-14T04:02:11.330Z,97159.63
2023-04-14T04:04:39.981Z,97161.50
2023-04-14T04:07:10.546Z,97157.75
2023-04-14T04:09:39.210Z,97151.56
2023-04-14T04:12:10.041Z,97156.13
2023-04-14T04:14:39.408Z,97165.81
2023-04-14T04:17:09.136Z,97160.44
2023-04-14T04:19:37.663Z,97164.19
2023-04-14T04:22:06.038Z,97170.38
2023-04-14T04:24:40.378Z,97170.38
2023-04-14T04:27:17.134Z,97169.56
2023-04-14T04:29:53.096Z,97164.19
2023-04-14T04:32:21.755Z,97167.69
2023-04-14T04:34:50.968Z,97172.25
2023-04-14T04:37:19.522Z,97165.22
2023-04-14T04:39:48.905Z,97160.66
2023-04-14T04:42:18.876Z,97163.38
2023-04-14T04:44:47.262Z,97153.44
2023-04-14T04:47:15.633Z,97148.06
2023-04-14T04:49:44.049Z,97158.81
2023-04-14T04:52:12.459Z,97157.16
2023-04-14T04:54:40.975Z,97156.13
2023-04-14T04:57:09.358Z,97164.19
2023-04-14T04:59:39.129Z,97162.13
2023-04-14T05:02:07.892Z,97162.31
2023-04-14T05:04:36.631Z,97148.88
2023-04-14T05:07:05.076Z,97149.94
2023-04-14T05:09:33.520Z,97142.69
2023-04-14T05:12:02.060Z,97134.63
2023-04-14T05:14:30.707Z,97122.25
2023-04-14T05:17:00.481Z,97131.94
2023-04-14T05:19:28.832Z,97135.44
2023-04-14T05:21:57.232Z,97139.59
2023-04-14T05:24:25.705Z,97137.13
2023-04-14T05:27:12.333Z,97145.78
2023-04-14T05:29:42.442Z,97140.22
2023-04-14T05:32:14.523Z,97132.34
2023-04-14T05:34:43.030Z,97131.13
2023-04-14T05:37:11.493Z,97135.47
2023-04-14T05:39:39.826Z,97125.75
2023-04-14T05:42:08.249Z,97123.06
2023-04-14T05:44:36.626Z,97117.69
2023-04-14T05:47:05.074Z,97108.59
2023-04-14T05:49:34.885Z,97118.50
2023-04-14T05:52:03.334Z,97104.47
2023-04-14T05:54:31.738Z,97093.09
2023-04-14T05:57:00.145Z,97099.28
2023-04-14T05:59:28.502Z,97105.91
2023-04-14T06:01:57.051Z,97097.00
2023-04-14T06:04:25.641Z,97093.06
2023-04-14T06:06:55.911Z,97096.41
2023-04-14T06:09:24.279Z,97082.34
2023-04-14T06:11:52.754Z,97080.69
2023-04-14T06:14:21.157Z,97089.78
2023-04-14T06:16:51.078Z,97079.88
2023-04-14T06:19:19.685Z,97083.56
2023-04-14T06:21:48.098Z,97079.66
2023-04-14T06:24:17.877Z,97076.97
2023-04-14T06:26:46.475Z,97094.75
2023-04-14T06:29:14.909Z,97092.28
2023-04-14T06:31:43.583Z,97095.78
2023-04-14T06:34:12.296Z,97088.97
2023-04-14T06:36:40.702Z,97096.19
2023-04-14T06:39:09.124Z,97094.34
2023-04-14T06:41:39.005Z,97079.25
2023-04-14T06:44:07.444Z,97079.44
2023-04-14T06:46:36.232Z,97076.97
2023-04-14T06:49:04.727Z,97073.44
2023-04-14T06:51:33.637Z,97072.44
2023-04-14T06:54:02.352Z,97069.34
2023-04-14T06:56:31.007Z,97064.56
2023-04-14T06:59:00.904Z,97061.06
2023-04-14T07:01:29.325Z,97050.72
2023-04-14T07:03:57.853Z,97050.09
2023-04-14T07:06:26.457Z,97038.94
2023-04-14T07:08:56.341Z,97049.47
2023-04-14T07:11:24.704Z,97044.53
2023-04-14T07:13:53.077Z,97045.53
2023-04-14T07:16:23.088Z,97032.75
2023-04-14T07:18:51.505Z,97022.81
2023-04-14T07:21:19.918Z,97019.72
2023-04-14T07:23:48.742Z,97020.94
2023-04-14T07:26:17.142Z,97013.97
2023-04-14T07:28:45.531Z,97016.66
2023-04-14T07:31:13.983Z,97020.34
2023-04-14T07:33:43.981Z,97017.03
2023-04-14T07:36:12.387Z,97015.38
2023-04-14T07:38:41.000Z,97014.97
2023-04-14T07:41:09.483Z,97026.75
2023-04-14T07:43:39.340Z,97025.28
2023-04-14T07:46:08.738Z,97022.66
2023-04-14T07:48:38.772Z,97018.91
2023-04-14T07:51:08.882Z,97025.94
2023-04-14T07:53:42.360Z,97014.38
2023-04-14T07:56:10.855Z,97032.56
2023-04-14T07:58:39.344Z,97021.81
2023-04-14T08:01:07.815Z,97021.81
2023-04-14T08:03:37.932Z,97022.63
2023-04-14T08:06:09.102Z,97021.59
2023-04-14T08:08:37.747Z,97010.44
2023-04-14T08:11:06.086Z,97012.94
2023-04-14T08:13:34.543Z,97021.38
2023-04-14T08:16:03.008Z,97006.09
2023-04-14T08:18:31.572Z,97008.78
2023-04-14T08:20:59.984Z,97009.81
2023-04-14T08:23:29.716Z,97018.91
2023-04-14T08:25:58.125Z,97010.44
2023-04-14T08:28:26.545Z,97019.31
2023-04-14T08:30:57.747Z,97009.81
2023-04-14T08:33:26.151Z,97010.00
2023-04-14T08:35:59.427Z,97000.13
2023-04-14T08:38:30.546Z,97009.00
2023-04-14T08:40:59.013Z,97005.50
2023-04-14T08:43:28.605Z,97004.25
2023-04-14T08:45:57.036Z,96990.38
2023-04-14T08:48:25.781Z,97000.31
2023-04-14T08:50:59.501Z,96999.50
2023-04-14T08:53:29.277Z,96997.63
2023-04-14T08:55:58.254Z,97000.31
2023-04-14T08:58:26.945Z,96987.69
2023-04-14T09:00:55.421Z,96995.56
2023-04-14T09:03:24.005Z,97001.75
2023-04-14T09:05:52.469Z,97004.25
2023-04-14T09:08:20.889Z,97008.34
2023-04-14T09:10:51.379Z,97011.03
2023-04-14T09:13:20.965Z,97004.84
2023-04-14T09:15:49.457Z,96999.47
2023-04-14T09:18:17.811Z,97001.13
2023-04-14T09:21:29.455Z,96994.28
2023-04-14T09:23:37.273Z,96996.34
2023-04-14T09:26:09.388Z,96988.13
2023-04-14T09:28:37.902Z,96977.56
2023-04-14T09:31:06.997Z,96986.47
2023-04-14T09:33:39.781Z,96972.78
2023-04-14T09:36:08.318Z,96971.56
2023-04-14T09:38:38.021Z,96967.22
2023-04-14T09:41:08.215Z,96957.09
2023-04-14T09:43:36.912Z,96963.69
2023-04-14T09:46:06.996Z,96953.75
2023-04-14T09:48:37.467Z,96958.94
2023-04-14T09:51:07.398Z,96949.00
2023-04-14T09:53:36.719Z,96940.75
2023-04-14T09:56:08.152Z,96947.97
2023-04-14T09:58:37.946Z,96936.19
2023-04-14T10:01:10.154Z,96945.28
2023-04-14T10:03:40.556Z,96934.13
2023-04-14T10:06:09.854Z,96934.31
2023-04-14T10:08:39.835Z,96930.59
2023-04-14T10:11:23.214Z,96933.69
2023-04-14T10:13:53.612Z,96930.16
2023-04-14T10:16:22.203Z,96931.59
2023-04-14T10:18:51.845Z,96929.75
2023-04-14T10:21:22.592Z,96934.91
2023-04-14T10:23:51.380Z,96921.47
2023-04-14T10:26:21.862Z,96928.72
2023-04-14T10:28:51.930Z,96920.44
2023-04-14T10:31:24.995Z,96923.72
2023-04-14T10:33:54.248Z,96927.25
2023-04-14T10:36:25.521Z,96916.91
2023-04-14T10:39:00.865Z,96915.88
2023-04-14T10:41:38.568Z,96922.09
2023-04-14T10:44:07.011Z,96923.94
2023-04-14T10:46:44.663Z,96922.72
2023-04-14T10:49:13.343Z,96915.88
2023-04-14T10:51:41.871Z,96910.72
2023-04-14T10:54:17.211Z,96910.50
2023-04-14T10:57:10.269Z,96917.13
2023-04-14T10:59:43.396Z,96900.59
2023-04-14T11:02:28.528Z,96897.28
2023-04-14T11:05:05.332Z,96896.47
2023-04-14T11:07:38.228Z,96889.22
2023-04-14T11:10:31.588Z,96889.84
2023-04-14T11:13:04.467Z,96883.03
2023-04-14T11:15:48.697Z,96882.81
2023-04-14T11:18:18.534Z,96873.09
2023-04-14T11:20:47.015Z,96889.22
2023-04-14T11:23:16.589Z,96891.69
2023-04-14T11:25:45.641Z,96889.22
2023-04-14T11:28:15.426Z,96894.38
2023-04-14T11:30:44.655Z,96875.97
2023-04-14T11:33:13.113Z,96877.19
2023-04-14T11:35:43.007Z,96868.28
2023-04-14T11:38:12.265Z,96880.91
2023-04-14T11:40:40.658Z,96869.16
2023-04-14T11:43:09.164Z,96862.75
2023-04-14T11:45:39.210Z,96865.66
2023-04-14T11:48:10.045Z,96872.06
2023-04-14T11:50:39.113Z,96868.53
2023-04-14T11:53:10.035Z,96870.19
2023-04-14T11:55:38.387Z,96862.34
2023-04-14T11:58:06.838Z,96860.69
2023-04-14T12:00:35.262Z,96859.88
2023-04-14T12:03:05.612Z,96849.94
2023-04-14T12:05:35.595Z,96842.91
2023-04-14T12:08:05.722Z,96848.28
2023-04-14T12:10:34.222Z,96863.59
2023-04-14T12:13:03.279Z,96865.25
2023-04-14T12:15:32.616Z,96853.66
2023-04-14T12:18:01.244Z,96852.03
2023-04-14T12:20:31.580Z,96842.91
2023-04-14T12:23:03.258Z,96852.63
2023-04-14T12:25:34.071Z,96835.91
2023-04-14T12:28:06.234Z,96834.84
2023-04-14T12:30:34.770Z,96825.53
2023-04-14T12:33:11.470Z,96825.53
2023-04-14T12:35:41.595Z,96810.66
2023-04-14T12:38:13.776Z,96818.72
2023-04-14T12:40:43.946Z,96818.72
2023-04-14T12:43:12.400Z,96823.50
2023-04-14T12:45:44.772Z,96808.22
2023-04-14T12:48:13.781Z,96804.53
2023-04-14T12:50:43.763Z,96810.28
2023-04-14T12:53:27.704Z,96796.84
2023-04-14T12:56:07.613Z,96805.72
2023-04-14T12:58:37.866Z,96796.63
2023-04-14T13:01:07.877Z,96785.03
2023-04-14T13:03:45.869Z,96785.88
2023-04-14T13:06:17.972Z,96773.28
2023-04-14T13:08:48.313Z,96775.97
2023-04-14T13:11:17.293Z,96780.72
2023-04-14T13:13:45.863Z,96770.59
2023-04-14T13:16:16.977Z,96767.91
2023-04-14T13:18:48.130Z,96767.06
2023-04-14T13:21:17.948Z,96782.16
2023-04-14T13:23:46.386Z,96778.84
2023-04-14T13:26:14.754Z,96768.09
2023-04-14T13:28:43.234Z,96790.22
2023-04-14T13:31:13.273Z,96779.66
2023-04-14T13:33:41.793Z,96786.72
2023-04-14T13:36:10.678Z,96784.22
2023-04-14T13:38:40.874Z,96787.72
2023-04-14T13:41:09.615Z,96778.66
2023-04-14T13:43:37.973Z,96775.97
2023-04-14T13:46:06.559Z,96780.34
2023-04-14T13:48:35.013Z,96779.91
2023-04-14T13:51:03.456Z,96789.59
2023-04-14T13:53:32.440Z,96774.28
2023-04-14T13:56:02.189Z,96783.78
2023-04-14T13:58:30.906Z,96778.41
2023-04-14T14:00:59.356Z,96785.03
2023-04-14T14:03:29.963Z,96788.34
2023-04-14T14:05:59.917Z,96782.97
2023-04-14T14:08:30.337Z,96783.78
2023-04-14T14:10:59.143Z,96776.78
2023-04-14T14:13:29.148Z,96780.94
2023-04-14T14:15:58.165Z,96781.16
2023-04-14T14:18:27.117Z,96770.59
2023-04-14T14:20:55.704Z,96780.09
2023-04-14T14:23:24.243Z,96768.53
2023-04-14T14:25:53.925Z,96770.59
2023-04-14T14:28:23.604Z,96782.75
2023-04-14T14:30:53.401Z,96784.84
2023-04-14T14:33:21.894Z,96783.78
2023-04-14T14:35:51.121Z,96785.44
2023-04-14T14:38:19.505Z,96784.41
2023-04-14T14:40:47.890Z,96777.38
2023-04-14T14:43:16.336Z,96780.28
2023-04-14T14:45:44.774Z,96782.16
2023-04-14T14:48:14.875Z,96785.66
2023-04-14T14:50:43.240Z,96778.41
2023-04-14T14:53:11.681Z,96787.53
2023-04-14T14:55:40.072Z,96788.13
2023-04-14T14:58:09.546Z,96783.59
2023-04-14T15:00:38.031Z,96785.22
2023-04-14T15:03:06.482Z,96794.34
2023-04-14T15:05:36.499Z,96788.75
2023-04-14T15:08:04.917Z,96796.59
2023-04-14T15:10:33.338Z,96785.00
2023-04-14T15:13:01.701Z,96794.94
2023-04-14T15:15:30.078Z,96793.28
2023-04-14T15:17:58.506Z,96791.84
2023-04-14T15:20:26.944Z,96787.72
2023-04-14T15:22:56.741Z,96795.38
2023-04-14T15:25:25.559Z,96789.16
2023-04-14T15:27:53.965Z,96792.91
2023-04-14T15:30:23.822Z,96786.91
2023-04-14T15:32:52.355Z,96791.69
2023-04-14T15:35:20.813Z,96791.69
2023-04-14T15:37:49.273Z,96796.22
2023-04-14T15:40:20.574Z,96792.72
2023-04-14T15:42:48.955Z,96791.91
2023-04-14T15:45:17.389Z,96801.59
2023-04-14T15:47:46.928Z,96799.97
2023-04-14T15:50:18.988Z,96810.50
2023-04-14T15:52:47.549Z,96802.44
2023-04-14T15:55:15.933Z,96796.22
2023-04-14T15:57:46.306Z,96795.41
2023-04-14T16:00:16.118Z,96797.06
2023-04-14T16:02:45.916Z,96804.91
2023-04-14T16:05:14.585Z,96809.47
2023-04-14T16:07:43.902Z,96793.34
2023-04-14T16:10:12.906Z,96809.47
2023-04-14T16:12:41.220Z,96811.09
2023-04-14T16:15:12.453Z,96803.03
2023-04-14T16:17:42.358Z,96811.09
2023-04-14T16:20:12.693Z,96815.66
2023-04-14T16:22:41.193Z,96818.94
2023-04-14T16:25:10.967Z,96818.94
2023-04-14T16:27:39.433Z,96830.53
2023-04-14T16:30:10.772Z,96829.72
2023-04-14T16:32:39.156Z,96825.16
2023-04-14T16:35:09.425Z,96832.78
2023-04-14T16:37:37.847Z,96831.13
2023-04-14T16:40:07.873Z,96831.13
2023-04-14T16:42:37.361Z,96832.59
2023-04-14T16:45:07.348Z,96832.00
2023-04-14T16:47:37.169Z,96845.00
2023-04-14T16:50:06.671Z,96832.59
2023-04-14T16:52:35.764Z,96834.69
2023-04-14T16:55:04.091Z,96840.66
2023-04-14T16:57:32.761Z,96841.47
2023-04-14T17:00:01.262Z,96835.28
2023-04-14T17:02:30.890Z,96832.81
2023-04-14T17:05:01.612Z,96842.75
2023-04-14T17:07:30.186Z,96843.56
2023-04-14T17:09:59.471Z,96840.06
2023-04-14T17:12:27.862Z,96829.53
2023-04-14T17:14:56.427Z,96819.81
2023-04-14T17:17:28.560Z,96827.03
2023-04-14T17:19:57.088Z,96825.19
2023-04-14T17:22:27.262Z,96827.66
2023-04-14T17:24:55.992Z,96833.41
2023-04-14T17:27:24.416Z,96828.47
2023-04-14T17:29:53.339Z,96836.34
2023-04-14T17:32:21.774Z,96832.81
2023-04-14T17:34:50.191Z,96836.09
2023-04-14T17:37:18.637Z,96832.59
2023-04-14T17:39:49.259Z,96845.00
2023-04-14T17:42:17.646Z,96831.34
2023-04-14T17:44:46.140Z,96833.81
2023-04-14T17:47:15.670Z,96847.25
2023-04-14T17:49:44.240Z,96847.88
2023-04-14T17:52:12.739Z,96839.59
2023-04-14T17:54:41.185Z,96841.44
2023-04-14T17:57:13.082Z,96840.19
2023-04-14T17:59:41.737Z,96843.72
2023-04-14T18:02:10.318Z,96842.66
2023-04-14T18:04:38.760Z,96834.38
2023-04-14T18:07:07.898Z,96831.31
2023-04-14T18:09:36.346Z,96831.91
2023-04-14T18:12:04.918Z,96833.56
2023-04-14T18:14:35.592Z,96829.22
2023-04-14T18:17:05.077Z,96825.50
2023-04-14T18:19:35.896Z,96830.06
2023-04-14T18:22:04.370Z,96830.28
2023-04-14T18:28:02.893Z,96818.91
2023-04-14T18:29:54.622Z,96821.00
2023-04-14T18:32:25.331Z,96820.16
2023-04-14T18:34:54.051Z,96818.31
2023-04-14T18:37:22.544Z,96821.22
2023-04-14T18:39:51.126Z,96815.00
2023-04-14T18:42:19.531Z,96811.50
2023-04-14T18:44:48.095Z,96805.28
2023-04-14T18:47:19.073Z,96799.91
2023-04-14T18:49:47.552Z,96811.28
2023-04-14T18:52:16.741Z,96808.59
2023-04-14T18:54:45.643Z,96812.09
2023-04-14T18:57:14.051Z,96802.19
2023-04-14T18:59:42.500Z,96804.88
2023-04-14T19:02:13.626Z,96805.91
2023-04-14T19:04:43.845Z,96798.28
2023-04-14T19:07:12.310Z,96799.91
2023-04-14T19:09:40.790Z,96804.47
2023-04-14T19:12:18.444Z,96797.47
2023-04-14T19:14:53.991Z,96793.72
2023-04-14T19:17:22.628Z,96792.91
2023-04-14T19:19:52.727Z,96793.94
2023-04-14T19:22:21.117Z,96799.53
2023-04-14T19:24:50.850Z,96800.97
2023-04-14T19:27:19.465Z,96787.72
2023-04-14T19:29:47.964Z,96800.13
2023-04-14T19:32:16.710Z,96793.09
2023-04-14T19:34:45.144Z,96779.66
2023-04-14T19:37:15.015Z,96793.09
2023-04-14T19:39:43.493Z,96791.47
2023-04-14T19:42:11.999Z,96794.97
2023-04-14T19:44:40.567Z,96796.84
2023-04-14T19:47:09.302Z,96797.66
2023-04-14T19:49:37.896Z,96785.03
2023-04-14T19:52:06.525Z,96789.59
2023-04-14T19:54:37.909Z,96785.03
2023-04-14T19:57:06.741Z,96783.19
2023-04-14T19:59:35.204Z,96790.41
2023-04-14T20:02:05.661Z,96796.19
2023-04-14T20:04:34.880Z,96789.16
2023-04-14T20:07:03.480Z,96789.59
2023-04-14T20:09:31.923Z,96801.16
2023-04-14T20:12:02.431Z,96796.63
2023-04-14T20:14:31.018Z,96794.97
2023-04-14T20:16:59.614Z,96801.41
2023-04-14T20:19:28.244Z,96797.66
2023-04-14T20:21:56.848Z,96807.38
2023-04-14T20:24:25.313Z,96802.22
2023-04-14T20:26:53.726Z,96805.72
2023-04-14T20:29:24.150Z,96806.78
2023-04-14T20:31:53.883Z,96806.16
2023-04-14T20:34:22.391Z,96796.47
2023-04-14T20:36:53.133Z,96799.97
2023-04-14T20:39:21.595Z,96804.09
2023-04-14T20:41:51.016Z,96803.25
2023-04-14T20:44:19.560Z,96803.66
2023-04-14T20:46:49.523Z,96799.53
2023-04-14T20:49:17.935Z,96797.06
2023-04-14T20:51:46.849Z,96806.16
2023-04-14T20:54:15.316Z,96809.66
2023-04-14T20:56:44.125Z,96809.91
2023-04-14T20:59:12.656Z,96819.59
2023-04-14T21:01:42.774Z,96820.66
2023-04-14T21:04:12.823Z,96820.66
2023-04-14T21:06:41.593Z,96819.81
2023-04-14T21:09:10.272Z,96828.69
2023-04-14T21:11:39.439Z,96814.44
2023-04-14T21:15:30.014Z,96820.66
2023-04-14T21:16:58.027Z,96835.09
2023-04-14T21:19:29.205Z,96840.47
2023-04-14T21:21:57.774Z,96836.97
2023-04-14T21:24:27.214Z,96845.84
2023-04-14T21:26:56.354Z,96845.84
2023-04-14T21:29:24.903Z,96844.00
2023-04-14T21:31:53.763Z,96847.72
2023-04-14T21:34:22.173Z,96834.28
2023-04-14T21:36:51.984Z,96843.16
2023-04-14T21:39:20.415Z,96849.59
2023-04-14T21:41:49.093Z,96850.63
2023-04-14T21:44:17.528Z,96853.09
2023-04-14T21:46:46.085Z,96853.09
2023-04-14T21:49:14.584Z,96863.03
2023-04-14T21:51:43.936Z,96862.19
2023-04-14T21:54:13.707Z,96863.84
2023-04-14T21:56:42.585Z,96864.06
2023-04-14T21:59:11.010Z,96859.50
2023-04-14T22:01:39.753Z,96864.06
2023-04-14T22:04:08.319Z,96864.88
2023-04-14T22:06:37.322Z,96885.34
2023-04-14T22:09:06.168Z,96877.50
2023-04-14T22:11:36.136Z,96868.59
2023-04-14T22:14:05.865Z,96884.72
2023-04-14T22:16:35.920Z,96873.97
2023-04-14T22:19:04.681Z,96880.19
2023-04-14T22:21:33.551Z,96885.56
2023-04-14T22:24:02.480Z,96890.94
2023-04-14T22:26:31.987Z,96888.44
2023-04-14T22:29:02.273Z,96891.97
2023-04-14T22:31:31.206Z,96889.28
2023-04-14T22:33:59.629Z,96900.03
2023-04-14T22:36:28.350Z,96897.34
2023-04-14T22:38:56.648Z,96908.91
2023-04-14T22:41:26.280Z,96901.06
2023-04-14T22:43:54.664Z,96900.03
2023-04-14T22:46:24.441Z,96908.06
2023-04-14T22:48:53.026Z,96908.06
2023-04-14T22:51:21.561Z,96917.81
2023-04-14T22:53:49.856Z,96920.50
2023-04-14T22:56:18.509Z,96918.00
2023-04-14T22:58:47.129Z,96929.56
2023-04-14T23:01:22.280Z,96926.06
2023-04-14T23:03:53.501Z,96926.28
2023-04-14T23:06:34.083Z,96919.88
2023-04-14T23:09:03.477Z,96931.44
2023-04-14T23:11:32.098Z,96936.00
2023-04-14T23:14:00.512Z,96934.31
2023-04-14T23:16:28.982Z,96938.47
2023-04-14T23:18:58.808Z,96933.31
2023-04-14T23:21:27.574Z,96930.81
2023-04-14T23:23:56.049Z,96924.44
2023-04-14T23:26:24.444Z,96915.53
2023-04-14T23:28:53.396Z,96918.22
2023-04-14T23:31:21.854Z,96927.31
2023-04-14T23:33:52.818Z,96930.81
2023-04-14T23:36:22.699Z,96943.44
2023-04-14T23:38:51.114Z,96940.56
2023-04-14T23:41:20.048Z,96952.13
2023-04-14T23:43:49.656Z,96963.88
2023-04-14T23:46:18.351Z,96962.88
2023-04-14T23:48:47.485Z,96978.16
2023-04-14T23:51:22.391Z,96967.44
2023-04-14T23:53:52.747Z,96966.81
2023-04-14T23:56:21.160Z,96968.44
2023-04-14T23:58:49.687Z,96970.31
